sensor_id;sensor_type;location;lat;lon;timestamp;P1;durP1;ratioP1;P2;durP2;ratioP2
80193;SDS011;69515;42.072;21.504;2024-03-08T00:01:56;3.08;;;1.00;;
80193;SDS011;69515;42.072;21.504;2024-03-08T00:06:48;2.88;;;1.15;;
80193;SDS011;69515;42.072;21.504;2024-03-08T00:09:15;2.67;;;1.10;;
80193;SDS011;69515;42.072;21.504;2024-03-08T00:14:08;2.40;;;0.93;;
80193;SDS011;69515;42.072;21.504;2024-03-08T00:19:02;2.78;;;1.10;;
80193;SDS011;69515;42.072;21.504;2024-03-08T00:23:54;3.22;;;1.05;;
80193;SDS011;69515;42.072;21.504;2024-03-08T00:28:47;3.55;;;1.05;;
80193;SDS011;69515;42.072;21.504;2024-03-08T00:31:14;2.38;;;1.02;;
80193;SDS011;69515;42.072;21.504;2024-03-08T00:33:43;2.33;;;1.02;;
80193;SDS011;69515;42.072;21.504;2024-03-08T00:38:35;3.80;;;1.50;;
80193;SDS011;69515;42.072;21.504;2024-03-08T00:41:02;4.05;;;1.50;;
80193;SDS011;69515;42.072;21.504;2024-03-08T00:43:28;2.80;;;1.20;;
80193;SDS011;69515;42.072;21.504;2024-03-08T00:45:57;3.85;;;1.35;;
80193;SDS011;69515;42.072;21.504;2024-03-08T00:48:23;3.03;;;1.25;;
80193;SDS011;69515;42.072;21.504;2024-03-08T00:53:16;3.20;;;1.40;;
80193;SDS011;69515;42.072;21.504;2024-03-08T00:58:11;1.70;;;0.90;;
80193;SDS011;69515;42.072;21.504;2024-03-08T01:03:04;2.20;;;1.05;;
80193;SDS011;69515;42.072;21.504;2024-03-08T01:05:32;3.10;;;1.30;;
80193;SDS011;69515;42.072;21.504;2024-03-08T01:07:58;3.08;;;1.38;;
80193;SDS011;69515;42.072;21.504;2024-03-08T01:12:51;4.45;;;1.42;;
80193;SDS011;69515;42.072;21.504;2024-03-08T01:15:17;2.60;;;1.00;;
80193;SDS011;69515;42.072;21.504;2024-03-08T01:17:44;2.20;;;1.00;;
80193;SDS011;69515;42.072;21.504;2024-03-08T01:20:11;2.45;;;1.20;;
80193;SDS011;69515;42.072;21.504;2024-03-08T01:22:38;3.30;;;0.93;;
80193;SDS011;69515;42.072;21.504;2024-03-08T01:25:04;2.20;;;1.00;;
80193;SDS011;69515;42.072;21.504;2024-03-08T01:27:31;2.50;;;1.00;;
80193;SDS011;69515;42.072;21.504;2024-03-08T01:29:57;2.50;;;1.00;;
80193;SDS011;69515;42.072;21.504;2024-03-08T01:32:24;2.95;;;1.10;;
80193;SDS011;69515;42.072;21.504;2024-03-08T01:37:17;3.70;;;1.35;;
80193;SDS011;69515;42.072;21.504;2024-03-08T01:39:43;2.92;;;1.17;;
80193;SDS011;69515;42.072;21.504;2024-03-08T01:42:09;6.18;;;1.40;;
80193;SDS011;69515;42.072;21.504;2024-03-08T01:44:38;2.80;;;1.10;;
80193;SDS011;69515;42.072;21.504;2024-03-08T01:47:04;2.50;;;1.20;;
80193;SDS011;69515;42.072;21.504;2024-03-08T01:49:31;3.42;;;1.35;;
80193;SDS011;69515;42.072;21.504;2024-03-08T01:51:58;3.53;;;1.10;;
80193;SDS011;69515;42.072;21.504;2024-03-08T01:54:24;3.63;;;1.48;;
80193;SDS011;69515;42.072;21.504;2024-03-08T01:56:52;2.97;;;1.10;;
80193;SDS011;69515;42.072;21.504;2024-03-08T02:01:44;3.65;;;1.50;;
80193;SDS011;69515;42.072;21.504;2024-03-08T02:06:37;4.15;;;1.80;;
80193;SDS011;69515;42.072;21.504;2024-03-08T02:09:03;4.18;;;1.42;;
80193;SDS011;69515;42.072;21.504;2024-03-08T02:11:35;3.17;;;1.55;;
80193;SDS011;69515;42.072;21.504;2024-03-08T02:14:02;3.53;;;1.30;;
80193;SDS011;69515;42.072;21.504;2024-03-08T02:16:31;6.65;;;1.92;;
80193;SDS011;69515;42.072;21.504;2024-03-08T02:18:58;4.38;;;1.48;;
80193;SDS011;69515;42.072;21.504;2024-03-08T02:21:25;3.33;;;1.40;;
80193;SDS011;69515;42.072;21.504;2024-03-08T02:23:51;3.50;;;1.40;;
80193;SDS011;69515;42.072;21.504;2024-03-08T02:28:44;2.72;;;1.38;;
80193;SDS011;69515;42.072;21.504;2024-03-08T02:31:11;3.85;;;1.42;;
80193;SDS011;69515;42.072;21.504;2024-03-08T02:33:37;3.40;;;1.42;;
80193;SDS011;69515;42.072;21.504;2024-03-08T02:38:31;3.60;;;1.67;;
80193;SDS011;69515;42.072;21.504;2024-03-08T02:40:58;3.53;;;1.48;;
80193;SDS011;69515;42.072;21.504;2024-03-08T02:43:24;3.95;;;1.52;;
80193;SDS011;69515;42.072;21.504;2024-03-08T02:48:18;4.65;;;1.52;;
80193;SDS011;69515;42.072;21.504;2024-03-08T02:53:10;2.88;;;1.35;;
80193;SDS011;69515;42.072;21.504;2024-03-08T02:55:38;3.78;;;1.25;;
80193;SDS011;69515;42.072;21.504;2024-03-08T02:58:04;3.67;;;1.60;;
80193;SDS011;69515;42.072;21.504;2024-03-08T03:00:33;2.92;;;1.33;;
80193;SDS011;69515;42.072;21.504;2024-03-08T03:03:00;4.63;;;1.98;;
80193;SDS011;69515;42.072;21.504;2024-03-08T03:05:28;4.22;;;1.75;;
80193;SDS011;69515;42.072;21.504;2024-03-08T03:07:58;5.47;;;1.67;;
80193;SDS011;69515;42.072;21.504;2024-03-08T03:10:25;5.53;;;1.65;;
80193;SDS011;69515;42.072;21.504;2024-03-08T03:12:51;4.20;;;1.60;;
80193;SDS011;69515;42.072;21.504;2024-03-08T03:15:18;3.13;;;1.45;;
80193;SDS011;69515;42.072;21.504;2024-03-08T03:17:48;4.63;;;1.65;;
80193;SDS011;69515;42.072;21.504;2024-03-08T03:20:16;3.30;;;1.55;;
80193;SDS011;69515;42.072;21.504;2024-03-08T03:22:51;3.28;;;1.40;;
80193;SDS011;69515;42.072;21.504;2024-03-08T03:25:19;4.32;;;2.22;;
80193;SDS011;69515;42.072;21.504;2024-03-08T03:27:51;4.30;;;1.77;;
80193;SDS011;69515;42.072;21.504;2024-03-08T03:30:17;4.65;;;1.73;;
80193;SDS011;69515;42.072;21.504;2024-03-08T03:32:49;3.95;;;1.90;;
80193;SDS011;69515;42.072;21.504;2024-03-08T03:35:19;4.43;;;1.80;;
80193;SDS011;69515;42.072;21.504;2024-03-08T03:37:46;3.53;;;1.65;;
80193;SDS011;69515;42.072;21.504;2024-03-08T03:40:47;3.78;;;1.42;;
80193;SDS011;69515;42.072;21.504;2024-03-08T03:43:17;5.15;;;1.73;;
80193;SDS011;69515;42.072;21.504;2024-03-08T03:48:09;3.05;;;1.50;;
80193;SDS011;69515;42.072;21.504;2024-03-08T03:50:36;4.18;;;1.70;;
80193;SDS011;69515;42.072;21.504;2024-03-08T03:55:28;4.65;;;1.60;;
80193;SDS011;69515;42.072;21.504;2024-03-08T04:00:20;3.67;;;1.50;;
80193;SDS011;69515;42.072;21.504;2024-03-08T04:02:47;3.38;;;1.60;;
80193;SDS011;69515;42.072;21.504;2024-03-08T04:05:14;4.15;;;1.48;;
80193;SDS011;69515;42.072;21.504;2024-03-08T04:10:06;3.78;;;1.77;;
80193;SDS011;69515;42.072;21.504;2024-03-08T04:12:33;3.17;;;1.33;;
80193;SDS011;69515;42.072;21.504;2024-03-08T04:15:00;3.30;;;1.50;;
80193;SDS011;69515;42.072;21.504;2024-03-08T04:17:26;3.15;;;1.30;;
80193;SDS011;69515;42.072;21.504;2024-03-08T04:22:18;3.70;;;1.50;;
80193;SDS011;69515;42.072;21.504;2024-03-08T04:24:45;4.22;;;1.77;;
80193;SDS011;69515;42.072;21.504;2024-03-08T04:27:12;3.10;;;1.70;;
80193;SDS011;69515;42.072;21.504;2024-03-08T04:29:38;3.17;;;1.50;;
80193;SDS011;69515;42.072;21.504;2024-03-08T04:34:31;3.33;;;1.20;;
80193;SDS011;69515;42.072;21.504;2024-03-08T04:36:59;3.33;;;1.63;;
80193;SDS011;69515;42.072;21.504;2024-03-08T04:39:25;2.88;;;1.20;;
80193;SDS011;69515;42.072;21.504;2024-03-08T04:41:55;3.08;;;1.52;;
80193;SDS011;69515;42.072;21.504;2024-03-08T04:44:21;3.00;;;1.33;;
80193;SDS011;69515;42.072;21.504;2024-03-08T04:46:49;3.85;;;1.60;;
80193;SDS011;69515;42.072;21.504;2024-03-08T04:51:42;4.78;;;1.75;;
80193;SDS011;69515;42.072;21.504;2024-03-08T04:54:10;3.67;;;1.92;;
80193;SDS011;69515;42.072;21.504;2024-03-08T04:59:02;3.83;;;1.88;;
80193;SDS011;69515;42.072;21.504;2024-03-08T05:01:28;4.85;;;1.55;;
80193;SDS011;69515;42.072;21.504;2024-03-08T05:03:54;3.70;;;1.50;;
80193;SDS011;69515;42.072;21.504;2024-03-08T05:06:21;3.42;;;1.60;;
80193;SDS011;69515;42.072;21.504;2024-03-08T05:08:48;5.13;;;2.20;;
80193;SDS011;69515;42.072;21.504;2024-03-08T05:13:41;5.45;;;2.20;;
80193;SDS011;69515;42.072;21.504;2024-03-08T05:16:07;6.18;;;2.63;;
80193;SDS011;69515;42.072;21.504;2024-03-08T05:18:33;9.30;;;3.75;;
80193;SDS011;69515;42.072;21.504;2024-03-08T05:21:01;9.95;;;4.30;;
80193;SDS011;69515;42.072;21.504;2024-03-08T05:23:29;7.97;;;3.83;;
80193;SDS011;69515;42.072;21.504;2024-03-08T05:25:56;8.13;;;3.08;;
80193;SDS011;69515;42.072;21.504;2024-03-08T05:28:22;8.15;;;3.60;;
80193;SDS011;69515;42.072;21.504;2024-03-08T05:30:48;7.70;;;4.05;;
80193;SDS011;69515;42.072;21.504;2024-03-08T05:33:15;7.72;;;3.70;;
80193;SDS011;69515;42.072;21.504;2024-03-08T05:35:41;6.53;;;2.72;;
80193;SDS011;69515;42.072;21.504;2024-03-08T05:38:08;6.32;;;3.05;;
80193;SDS011;69515;42.072;21.504;2024-03-08T05:40:35;6.40;;;2.60;;
80193;SDS011;69515;42.072;21.504;2024-03-08T05:43:01;5.70;;;2.53;;
80193;SDS011;69515;42.072;21.504;2024-03-08T05:45:27;6.85;;;2.80;;
80193;SDS011;69515;42.072;21.504;2024-03-08T05:50:19;6.32;;;2.72;;
80193;SDS011;69515;42.072;21.504;2024-03-08T05:52:46;5.93;;;3.10;;
80193;SDS011;69515;42.072;21.504;2024-03-08T05:55:13;6.28;;;2.45;;
80193;SDS011;69515;42.072;21.504;2024-03-08T05:57:42;5.68;;;2.88;;
80193;SDS011;69515;42.072;21.504;2024-03-08T06:00:09;6.60;;;3.58;;
80193;SDS011;69515;42.072;21.504;2024-03-08T06:02:40;6.70;;;3.13;;
80193;SDS011;69515;42.072;21.504;2024-03-08T06:05:10;5.70;;;2.95;;
80193;SDS011;69515;42.072;21.504;2024-03-08T06:07:37;6.05;;;3.00;;
80193;SDS011;69515;42.072;21.504;2024-03-08T06:10:07;8.32;;;3.40;;
80193;SDS011;69515;42.072;21.504;2024-03-08T06:12:35;6.85;;;3.55;;
80193;SDS011;69515;42.072;21.504;2024-03-08T06:15:09;6.57;;;3.33;;
80193;SDS011;69515;42.072;21.504;2024-03-08T06:17:38;6.68;;;3.28;;
80193;SDS011;69515;42.072;21.504;2024-03-08T06:20:04;6.80;;;3.60;;
80193;SDS011;69515;42.072;21.504;2024-03-08T06:22:38;8.52;;;4.13;;
80193;SDS011;69515;42.072;21.504;2024-03-08T06:25:09;8.57;;;4.97;;
80193;SDS011;69515;42.072;21.504;2024-03-08T06:27:40;8.15;;;4.55;;
80193;SDS011;69515;42.072;21.504;2024-03-08T06:30:08;9.07;;;4.97;;
80193;SDS011;69515;42.072;21.504;2024-03-08T06:32:37;9.20;;;5.40;;
80193;SDS011;69515;42.072;21.504;2024-03-08T06:35:03;11.23;;;5.93;;
80193;SDS011;69515;42.072;21.504;2024-03-08T06:37:33;8.70;;;5.28;;
80193;SDS011;69515;42.072;21.504;2024-03-08T06:40:00;10.80;;;6.15;;
80193;SDS011;69515;42.072;21.504;2024-03-08T06:42:27;9.73;;;5.38;;
80193;SDS011;69515;42.072;21.504;2024-03-08T06:44:54;10.60;;;5.13;;
80193;SDS011;69515;42.072;21.504;2024-03-08T06:47:25;8.13;;;5.43;;
80193;SDS011;69515;42.072;21.504;2024-03-08T06:49:51;8.38;;;5.45;;
80193;SDS011;69515;42.072;21.504;2024-03-08T06:52:17;16.95;;;5.38;;
80193;SDS011;69515;42.072;21.504;2024-03-08T06:54:44;35.60;;;8.93;;
80193;SDS011;69515;42.072;21.504;2024-03-08T06:57:10;11.07;;;6.22;;
80193;SDS011;69515;42.072;21.504;2024-03-08T06:59:36;12.93;;;5.90;;
80193;SDS011;69515;42.072;21.504;2024-03-08T07:02:03;9.07;;;5.95;;
80193;SDS011;69515;42.072;21.504;2024-03-08T07:04:29;11.48;;;6.18;;
80193;SDS011;69515;42.072;21.504;2024-03-08T07:06:56;12.02;;;6.43;;
80193;SDS011;69515;42.072;21.504;2024-03-08T07:09:26;9.38;;;5.47;;
80193;SDS011;69515;42.072;21.504;2024-03-08T07:11:55;9.32;;;5.40;;
80193;SDS011;69515;42.072;21.504;2024-03-08T07:14:22;10.95;;;5.75;;
80193;SDS011;69515;42.072;21.504;2024-03-08T07:16:49;8.95;;;5.03;;
80193;SDS011;69515;42.072;21.504;2024-03-08T07:19:16;9.57;;;6.50;;
80193;SDS011;69515;42.072;21.504;2024-03-08T07:21:43;10.52;;;6.63;;
80193;SDS011;69515;42.072;21.504;2024-03-08T07:24:10;10.20;;;6.18;;
80193;SDS011;69515;42.072;21.504;2024-03-08T07:26:45;10.63;;;6.53;;
80193;SDS011;69515;42.072;21.504;2024-03-08T07:29:18;14.25;;;7.07;;
80193;SDS011;69515;42.072;21.504;2024-03-08T07:31:44;10.65;;;6.30;;
80193;SDS011;69515;42.072;21.504;2024-03-08T07:34:16;11.52;;;6.45;;
80193;SDS011;69515;42.072;21.504;2024-03-08T07:36:43;10.30;;;6.20;;
80193;SDS011;69515;42.072;21.504;2024-03-08T07:39:29;11.85;;;7.10;;
80193;SDS011;69515;42.072;21.504;2024-03-08T07:41:55;9.18;;;6.00;;
80193;SDS011;69515;42.072;21.504;2024-03-08T07:44:22;10.07;;;5.72;;
80193;SDS011;69515;42.072;21.504;2024-03-08T07:46:48;9.52;;;6.68;;
80193;SDS011;69515;42.072;21.504;2024-03-08T07:49:15;11.02;;;6.47;;
80193;SDS011;69515;42.072;21.504;2024-03-08T07:51:41;9.32;;;6.00;;
80193;SDS011;69515;42.072;21.504;2024-03-08T07:54:07;9.93;;;6.35;;
80193;SDS011;69515;42.072;21.504;2024-03-08T07:56:34;8.30;;;6.25;;
80193;SDS011;69515;42.072;21.504;2024-03-08T07:59:01;11.57;;;6.07;;
80193;SDS011;69515;42.072;21.504;2024-03-08T08:01:29;10.45;;;5.90;;
80193;SDS011;69515;42.072;21.504;2024-03-08T08:03:56;9.88;;;6.07;;
80193;SDS011;69515;42.072;21.504;2024-03-08T08:06:22;11.57;;;6.05;;
80193;SDS011;69515;42.072;21.504;2024-03-08T08:08:49;11.15;;;6.10;;
80193;SDS011;69515;42.072;21.504;2024-03-08T08:11:15;11.50;;;6.25;;
80193;SDS011;69515;42.072;21.504;2024-03-08T08:13:41;8.73;;;6.03;;
80193;SDS011;69515;42.072;21.504;2024-03-08T08:16:08;10.65;;;7.10;;
80193;SDS011;69515;42.072;21.504;2024-03-08T08:18:35;10.75;;;5.85;;
80193;SDS011;69515;42.072;21.504;2024-03-08T08:21:02;11.23;;;6.60;;
80193;SDS011;69515;42.072;21.504;2024-03-08T08:23:30;9.85;;;6.43;;
80193;SDS011;69515;42.072;21.504;2024-03-08T08:25:57;8.90;;;5.70;;
80193;SDS011;69515;42.072;21.504;2024-03-08T08:28:24;9.43;;;6.25;;
80193;SDS011;69515;42.072;21.504;2024-03-08T08:30:50;9.50;;;6.18;;
80193;SDS011;69515;42.072;21.504;2024-03-08T08:33:26;9.77;;;5.13;;
80193;SDS011;69515;42.072;21.504;2024-03-08T08:35:52;10.40;;;5.43;;
80193;SDS011;69515;42.072;21.504;2024-03-08T08:38:19;10.02;;;5.15;;
80193;SDS011;69515;42.072;21.504;2024-03-08T08:40:45;9.18;;;5.05;;
80193;SDS011;69515;42.072;21.504;2024-03-08T08:43:13;9.50;;;5.60;;
80193;SDS011;69515;42.072;21.504;2024-03-08T08:45:41;11.13;;;5.60;;
80193;SDS011;69515;42.072;21.504;2024-03-08T08:48:09;9.95;;;5.32;;
80193;SDS011;69515;42.072;21.504;2024-03-08T08:50:36;9.45;;;5.55;;
80193;SDS011;69515;42.072;21.504;2024-03-08T08:53:03;8.70;;;4.97;;
80193;SDS011;69515;42.072;21.504;2024-03-08T08:55:32;7.78;;;5.10;;
80193;SDS011;69515;42.072;21.504;2024-03-08T08:58:00;8.27;;;5.00;;
80193;SDS011;69515;42.072;21.504;2024-03-08T09:00:28;8.98;;;5.00;;
80193;SDS011;69515;42.072;21.504;2024-03-08T09:02:56;9.60;;;5.07;;
80193;SDS011;69515;42.072;21.504;2024-03-08T09:05:23;9.48;;;4.95;;
80193;SDS011;69515;42.072;21.504;2024-03-08T09:07:51;7.10;;;4.47;;
80193;SDS011;69515;42.072;21.504;2024-03-08T09:10:18;7.55;;;5.15;;
80193;SDS011;69515;42.072;21.504;2024-03-08T09:12:44;8.63;;;5.55;;
80193;SDS011;69515;42.072;21.504;2024-03-08T09:15:10;8.45;;;4.88;;
80193;SDS011;69515;42.072;21.504;2024-03-08T09:17:37;8.45;;;5.32;;
80193;SDS011;69515;42.072;21.504;2024-03-08T09:20:07;8.93;;;4.60;;
80193;SDS011;69515;42.072;21.504;2024-03-08T09:22:40;8.38;;;4.82;;
80193;SDS011;69515;42.072;21.504;2024-03-08T09:25:07;8.15;;;4.97;;
80193;SDS011;69515;42.072;21.504;2024-03-08T09:27:34;6.80;;;4.43;;
80193;SDS011;69515;42.072;21.504;2024-03-08T09:30:01;11.65;;;5.32;;
80193;SDS011;69515;42.072;21.504;2024-03-08T09:32:27;9.10;;;5.35;;
80193;SDS011;69515;42.072;21.504;2024-03-08T09:34:55;8.60;;;5.13;;
80193;SDS011;69515;42.072;21.504;2024-03-08T09:37:21;9.30;;;5.60;;
80193;SDS011;69515;42.072;21.504;2024-03-08T09:39:48;9.40;;;5.32;;
80193;SDS011;69515;42.072;21.504;2024-03-08T09:42:15;10.07;;;5.53;;
80193;SDS011;69515;42.072;21.504;2024-03-08T09:44:44;8.55;;;5.57;;
80193;SDS011;69515;42.072;21.504;2024-03-08T09:47:14;8.77;;;5.32;;
80193;SDS011;69515;42.072;21.504;2024-03-08T09:49:41;10.98;;;5.15;;
80193;SDS011;69515;42.072;21.504;2024-03-08T09:52:08;9.50;;;5.68;;
80193;SDS011;69515;42.072;21.504;2024-03-08T09:54:38;9.15;;;5.40;;
80193;SDS011;69515;42.072;21.504;2024-03-08T09:57:04;9.48;;;5.10;;
80193;SDS011;69515;42.072;21.504;2024-03-08T09:59:34;9.70;;;5.78;;
80193;SDS011;69515;42.072;21.504;2024-03-08T10:02:01;10.80;;;5.57;;
80193;SDS011;69515;42.072;21.504;2024-03-08T10:04:30;12.45;;;5.70;;
80193;SDS011;69515;42.072;21.504;2024-03-08T10:07:00;9.25;;;5.82;;
80193;SDS011;69515;42.072;21.504;2024-03-08T10:09:27;10.30;;;5.85;;
80193;SDS011;69515;42.072;21.504;2024-03-08T10:11:56;9.57;;;5.88;;
80193;SDS011;69515;42.072;21.504;2024-03-08T10:14:23;13.50;;;5.70;;
80193;SDS011;69515;42.072;21.504;2024-03-08T10:16:52;19.60;;;5.80;;
80193;SDS011;69515;42.072;21.504;2024-03-08T10:19:19;9.45;;;5.20;;
80193;SDS011;69515;42.072;21.504;2024-03-08T10:21:51;9.60;;;5.07;;
80193;SDS011;69515;42.072;21.504;2024-03-08T10:24:24;7.53;;;4.88;;
80193;SDS011;69515;42.072;21.504;2024-03-08T10:26:53;8.93;;;4.63;;
80193;SDS011;69515;42.072;21.504;2024-03-08T10:29:19;8.25;;;4.78;;
80193;SDS011;69515;42.072;21.504;2024-03-08T10:31:46;6.72;;;4.70;;
80193;SDS011;69515;42.072;21.504;2024-03-08T10:34:12;9.93;;;4.88;;
80193;SDS011;69515;42.072;21.504;2024-03-08T10:36:39;7.32;;;4.63;;
80193;SDS011;69515;42.072;21.504;2024-03-08T10:39:13;6.40;;;4.30;;
80193;SDS011;69515;42.072;21.504;2024-03-08T10:41:44;8.85;;;4.40;;
80193;SDS011;69515;42.072;21.504;2024-03-08T10:44:40;8.57;;;4.82;;
80193;SDS011;69515;42.072;21.504;2024-03-08T10:47:07;9.35;;;4.80;;
80193;SDS011;69515;42.072;21.504;2024-03-08T10:49:41;11.63;;;5.22;;
80193;SDS011;69515;42.072;21.504;2024-03-08T10:52:10;17.10;;;4.63;;
80193;SDS011;69515;42.072;21.504;2024-03-08T10:54:38;12.50;;;4.22;;
80193;SDS011;69515;42.072;21.504;2024-03-08T10:57:05;6.45;;;4.35;;
80193;SDS011;69515;42.072;21.504;2024-03-08T10:59:33;7.53;;;3.57;;
80193;SDS011;69515;42.072;21.504;2024-03-08T11:02:01;6.85;;;3.88;;
80193;SDS011;69515;42.072;21.504;2024-03-08T11:04:27;5.93;;;3.65;;
80193;SDS011;69515;42.072;21.504;2024-03-08T11:06:59;5.60;;;2.92;;
80193;SDS011;69515;42.072;21.504;2024-03-08T11:09:42;6.25;;;3.45;;
80193;SDS011;69515;42.072;21.504;2024-03-08T11:14:55;6.95;;;3.42;;
80193;SDS011;69515;42.072;21.504;2024-03-08T11:19:49;5.95;;;3.33;;
80193;SDS011;69515;42.072;21.504;2024-03-08T11:22:20;7.85;;;3.10;;
80193;SDS011;69515;42.072;21.504;2024-03-08T11:24:52;10.82;;;3.47;;
80193;SDS011;69515;42.072;21.504;2024-03-08T11:27:19;5.60;;;2.58;;
80193;SDS011;69515;42.072;21.504;2024-03-08T11:30:01;4.93;;;2.40;;
80193;SDS011;69515;42.072;21.504;2024-03-08T11:32:37;3.90;;;1.98;;
80193;SDS011;69515;42.072;21.504;2024-03-08T11:35:07;4.40;;;2.40;;
80193;SDS011;69515;42.072;21.504;2024-03-08T11:37:36;6.47;;;2.50;;
80193;SDS011;69515;42.072;21.504;2024-03-08T11:40:11;4.25;;;2.50;;
80193;SDS011;69515;42.072;21.504;2024-03-08T11:42:47;5.68;;;2.78;;
80193;SDS011;69515;42.072;21.504;2024-03-08T11:45:17;5.60;;;3.00;;
80193;SDS011;69515;42.072;21.504;2024-03-08T11:47:47;4.72;;;2.90;;
80193;SDS011;69515;42.072;21.504;2024-03-08T11:50:13;6.40;;;2.42;;
80193;SDS011;69515;42.072;21.504;2024-03-08T11:52:44;5.55;;;2.50;;
80193;SDS011;69515;42.072;21.504;2024-03-08T11:55:11;5.03;;;3.03;;
80193;SDS011;69515;42.072;21.504;2024-03-08T11:57:38;6.03;;;2.45;;
80193;SDS011;69515;42.072;21.504;2024-03-08T12:00:14;5.47;;;2.30;;
80193;SDS011;69515;42.072;21.504;2024-03-08T12:02:47;3.90;;;2.30;;
80193;SDS011;69515;42.072;21.504;2024-03-08T12:05:16;5.78;;;2.45;;
80193;SDS011;69515;42.072;21.504;2024-03-08T12:07:42;5.18;;;2.40;;
80193;SDS011;69515;42.072;21.504;2024-03-08T12:10:22;3.78;;;2.30;;
80193;SDS011;69515;42.072;21.504;2024-03-08T12:12:53;5.00;;;2.55;;
80193;SDS011;69515;42.072;21.504;2024-03-08T12:15:20;5.00;;;2.30;;
80193;SDS011;69515;42.072;21.504;2024-03-08T12:17:48;5.97;;;2.58;;
80193;SDS011;69515;42.072;21.504;2024-03-08T12:20:17;4.13;;;2.00;;
80193;SDS011;69515;42.072;21.504;2024-03-08T12:22:44;4.22;;;2.35;;
80193;SDS011;69515;42.072;21.504;2024-03-08T12:25:11;4.93;;;2.38;;
80193;SDS011;69515;42.072;21.504;2024-03-08T12:27:41;3.83;;;1.90;;
80193;SDS011;69515;42.072;21.504;2024-03-08T12:30:23;4.35;;;1.80;;
80193;SDS011;69515;42.072;21.504;2024-03-08T12:32:55;8.80;;;3.42;;
80193;SDS011;69515;42.072;21.504;2024-03-08T12:35:23;4.45;;;2.25;;
80193;SDS011;69515;42.072;21.504;2024-03-08T12:37:59;4.50;;;2.13;;
80193;SDS011;69515;42.072;21.504;2024-03-08T12:40:44;4.07;;;2.00;;
80193;SDS011;69515;42.072;21.504;2024-03-08T12:43:10;5.00;;;2.20;;
80193;SDS011;69515;42.072;21.504;2024-03-08T12:45:37;5.40;;;1.42;;
80193;SDS011;69515;42.072;21.504;2024-03-08T12:48:03;4.80;;;2.13;;
80193;SDS011;69515;42.072;21.504;2024-03-08T12:50:40;7.25;;;2.35;;
80193;SDS011;69515;42.072;21.504;2024-03-08T12:53:10;3.67;;;1.90;;
80193;SDS011;69515;42.072;21.504;2024-03-08T12:55:37;15.63;;;3.22;;
80193;SDS011;69515;42.072;21.504;2024-03-08T12:58:03;5.38;;;2.35;;
80193;SDS011;69515;42.072;21.504;2024-03-08T13:00:33;5.10;;;2.03;;
80193;SDS011;69515;42.072;21.504;2024-03-08T13:03:01;6.18;;;2.35;;
80193;SDS011;69515;42.072;21.504;2024-03-08T13:05:50;5.88;;;2.30;;
80193;SDS011;69515;42.072;21.504;2024-03-08T13:08:36;3.83;;;1.88;;
80193;SDS011;69515;42.072;21.504;2024-03-08T13:11:10;4.05;;;2.00;;
80193;SDS011;69515;42.072;21.504;2024-03-08T13:14:00;2.85;;;1.50;;
80193;SDS011;69515;42.072;21.504;2024-03-08T13:16:27;3.08;;;1.50;;
80193;SDS011;69515;42.072;21.504;2024-03-08T13:18:54;3.85;;;1.70;;
80193;SDS011;69515;42.072;21.504;2024-03-08T13:21:22;4.07;;;1.92;;
80193;SDS011;69515;42.072;21.504;2024-03-08T13:23:49;6.22;;;2.33;;
80193;SDS011;69515;42.072;21.504;2024-03-08T13:26:18;4.60;;;1.98;;
80193;SDS011;69515;42.072;21.504;2024-03-08T13:28:50;4.40;;;1.83;;
80193;SDS011;69515;42.072;21.504;2024-03-08T13:31:20;5.80;;;1.65;;
80193;SDS011;69515;42.072;21.504;2024-03-08T13:33:46;4.82;;;1.85;;
80193;SDS011;69515;42.072;21.504;2024-03-08T13:36:13;9.10;;;1.70;;
80193;SDS011;69515;42.072;21.504;2024-03-08T13:38:47;3.65;;;1.40;;
80193;SDS011;69515;42.072;21.504;2024-03-08T13:41:14;4.18;;;1.88;;
80193;SDS011;69515;42.072;21.504;2024-03-08T13:43:42;3.50;;;1.70;;
80193;SDS011;69515;42.072;21.504;2024-03-08T13:46:08;3.83;;;1.70;;
80193;SDS011;69515;42.072;21.504;2024-03-08T13:48:38;3.72;;;2.00;;
80193;SDS011;69515;42.072;21.504;2024-03-08T13:51:04;4.15;;;1.73;;
80193;SDS011;69515;42.072;21.504;2024-03-08T13:53:36;3.90;;;1.90;;
80193;SDS011;69515;42.072;21.504;2024-03-08T13:56:02;4.20;;;1.83;;
80193;SDS011;69515;42.072;21.504;2024-03-08T14:01:13;3.88;;;1.58;;
80193;SDS011;69515;42.072;21.504;2024-03-08T14:06:52;3.20;;;1.58;;
80193;SDS011;69515;42.072;21.504;2024-03-08T14:09:29;3.63;;;1.55;;
80193;SDS011;69515;42.072;21.504;2024-03-08T14:11:57;5.22;;;2.78;;
80193;SDS011;69515;42.072;21.504;2024-03-08T14:15:08;4.47;;;1.80;;
80193;SDS011;69515;42.072;21.504;2024-03-08T14:17:38;5.40;;;1.80;;
80193;SDS011;69515;42.072;21.504;2024-03-08T14:20:06;4.75;;;2.03;;
80193;SDS011;69515;42.072;21.504;2024-03-08T14:22:33;3.50;;;1.80;;
80193;SDS011;69515;42.072;21.504;2024-03-08T14:24:59;4.15;;;1.63;;
80193;SDS011;69515;42.072;21.504;2024-03-08T14:27:27;3.72;;;1.70;;
80193;SDS011;69515;42.072;21.504;2024-03-08T14:30:04;4.47;;;1.95;;
80193;SDS011;69515;42.072;21.504;2024-03-08T14:32:35;4.07;;;2.08;;
80193;SDS011;69515;42.072;21.504;2024-03-08T14:35:04;4.05;;;1.92;;
80193;SDS011;69515;42.072;21.504;2024-03-08T14:37:30;3.80;;;1.63;;
80193;SDS011;69515;42.072;21.504;2024-03-08T14:39:56;4.93;;;2.40;;
80193;SDS011;69515;42.072;21.504;2024-03-08T14:42:23;3.90;;;1.85;;
80193;SDS011;69515;42.072;21.504;2024-03-08T14:44:51;5.97;;;2.20;;
80193;SDS011;69515;42.072;21.504;2024-03-08T14:47:19;4.43;;;1.90;;
80193;SDS011;69515;42.072;21.504;2024-03-08T14:49:47;4.25;;;1.88;;
80193;SDS011;69515;42.072;21.504;2024-03-08T14:52:14;4.28;;;1.95;;
80193;SDS011;69515;42.072;21.504;2024-03-08T14:54:53;4.70;;;2.13;;
80193;SDS011;69515;42.072;21.504;2024-03-08T14:57:19;3.90;;;2.03;;
80193;SDS011;69515;42.072;21.504;2024-03-08T14:59:45;4.38;;;2.20;;
80193;SDS011;69515;42.072;21.504;2024-03-08T15:02:11;5.10;;;2.20;;
80193;SDS011;69515;42.072;21.504;2024-03-08T15:04:37;4.47;;;2.63;;
80193;SDS011;69515;42.072;21.504;2024-03-08T15:07:06;4.72;;;2.22;;
80193;SDS011;69515;42.072;21.504;2024-03-08T15:09:35;6.57;;;2.45;;
80193;SDS011;69515;42.072;21.504;2024-03-08T15:12:05;4.18;;;2.10;;
80193;SDS011;69515;42.072;21.504;2024-03-08T15:14:32;4.60;;;2.40;;
80193;SDS011;69515;42.072;21.504;2024-03-08T15:16:58;5.63;;;2.35;;
80193;SDS011;69515;42.072;21.504;2024-03-08T15:19:26;4.35;;;2.30;;
80193;SDS011;69515;42.072;21.504;2024-03-08T15:21:52;5.43;;;2.28;;
80193;SDS011;69515;42.072;21.504;2024-03-08T15:24:21;6.47;;;2.50;;
80193;SDS011;69515;42.072;21.504;2024-03-08T15:26:48;5.55;;;2.35;;
80193;SDS011;69515;42.072;21.504;2024-03-08T15:29:16;6.18;;;2.80;;
80193;SDS011;69515;42.072;21.504;2024-03-08T15:31:45;11.45;;;3.30;;
80193;SDS011;69515;42.072;21.504;2024-03-08T15:34:11;6.38;;;2.95;;
80193;SDS011;69515;42.072;21.504;2024-03-08T15:36:38;6.20;;;2.90;;
80193;SDS011;69515;42.072;21.504;2024-03-08T15:39:08;8.20;;;3.47;;
80193;SDS011;69515;42.072;21.504;2024-03-08T15:41:35;6.55;;;3.70;;
80193;SDS011;69515;42.072;21.504;2024-03-08T15:44:01;4.63;;;2.65;;
80193;SDS011;69515;42.072;21.504;2024-03-08T15:46:28;7.03;;;3.13;;
80193;SDS011;69515;42.072;21.504;2024-03-08T15:48:54;5.65;;;3.00;;
80193;SDS011;69515;42.072;21.504;2024-03-08T15:51:22;5.55;;;3.22;;
80193;SDS011;69515;42.072;21.504;2024-03-08T15:53:48;5.70;;;3.05;;
80193;SDS011;69515;42.072;21.504;2024-03-08T15:56:21;7.03;;;3.70;;
80193;SDS011;69515;42.072;21.504;2024-03-08T15:58:48;7.05;;;3.88;;